sensor_id;sensor_type;location;lat;lon;timestamp;pressure;altitude;pressure_sealevel;temperature;humidity
59608;BME280;45426;44.726;10.390;2023-02-19T00:01:14;101488.56;;;4.43;100.00
59608;BME280;45426;44.726;10.390;2023-02-19T00:03:41;101478.97;;;4.89;100.00
59608;BME280;45426;44.726;10.390;2023-02-19T00:06:09;101478.13;;;4.73;100.00
59608;BME280;45426;44.726;10.390;2023-02-19T00:08:36;101482.78;;;3.56;100.00
59608;BME280;45426;44.726;10.390;2023-02-19T00:11:04;101482.13;;;3.39;100.00
59608;BME280;45426;44.726;10.390;2023-02-19T00:13:33;101483.16;;;3.75;100.00
59608;BME280;45426;44.726;10.390;2023-02-19T00:18:32;101483.00;;;3.97;100.00
59608;BME280;45426;44.726;10.390;2023-02-19T00:20:57;101482.94;;;3.82;100.00
59608;BME280;45426;44.726;10.390;2023-02-19T00:23:22;101486.78;;;4.01;100.00
59608;BME280;45426;44.726;10.390;2023-02-19T00:25:48;101482.28;;;3.64;100.00
59608;BME280;45426;44.726;10.390;2023-02-19T00:28:13;101481.66;;;4.00;100.00
59608;BME280;45426;44.726;10.390;2023-02-19T00:30:39;101479.06;;;4.20;100.00
59608;BME280;45426;44.726;10.390;2023-02-19T00:33:04;101489.06;;;3.77;100.00
59608;BME280;45426;44.726;10.390;2023-02-19T00:35:33;101487.28;;;3.98;100.00
59608;BME280;45426;44.726;10.390;2023-02-19T00:37:58;101483.63;;;3.62;100.00
59608;BME280;45426;44.726;10.390;2023-02-19T00:40:24;101491.69;;;4.15;100.00
59608;BME280;45426;44.726;10.390;2023-02-19T00:42:50;101488.06;;;4.67;100.00
59608;BME280;45426;44.726;10.390;2023-02-19T00:45:16;101495.47;;;4.24;100.00
59608;BME280;45426;44.726;10.390;2023-02-19T00:47:41;101493.19;;;3.90;100.00
59608;BME280;45426;44.726;10.390;2023-02-19T00:50:07;101490.78;;;3.94;100.00
59608;BME280;45426;44.726;10.390;2023-02-19T00:52:32;101497.56;;;4.06;100.00
59608;BME280;45426;44.726;10.390;2023-02-19T00:54:57;101495.94;;;4.05;100.00
59608;BME280;45426;44.726;10.390;2023-02-19T00:57:23;101480.59;;;4.01;100.00
59608;BME280;45426;44.726;10.390;2023-02-19T00:59:48;101480.78;;;3.84;100.00
59608;BME280;45426;44.726;10.390;2023-02-19T01:02:14;101483.94;;;3.76;100.00
59608;BME280;45426;44.726;10.390;2023-02-19T01:04:39;101490.88;;;3.61;100.00
59608;BME280;45426;44.726;10.390;2023-02-19T01:07:04;101490.44;;;3.80;100.00
59608;BME280;45426;44.726;10.390;2023-02-19T01:09:30;101479.13;;;3.73;100.00
59608;BME280;45426;44.726;10.390;2023-02-19T01:11:55;101481.00;;;3.77;100.00
59608;BME280;45426;44.726;10.390;2023-02-19T01:14:20;101484.50;;;4.31;100.00
59608;BME280;45426;44.726;10.390;2023-02-19T01:16:46;101479.38;;;4.29;100.00
59608;BME280;45426;44.726;10.390;2023-02-19T01:19:11;101477.78;;;3.75;100.00
59608;BME280;45426;44.726;10.390;2023-02-19T01:21:39;101470.09;;;3.99;100.00
59608;BME280;45426;44.726;10.390;2023-02-19T01:24:04;101475.06;;;4.23;100.00
59608;BME280;45426;44.726;10.390;2023-02-19T01:26:31;101468.94;;;3.80;100.00
59608;BME280;45426;44.726;10.390;2023-02-19T01:28:59;101467.88;;;3.38;100.00
59608;BME280;45426;44.726;10.390;2023-02-19T01:31:24;101475.88;;;3.71;100.00
59608;BME280;45426;44.726;10.390;2023-02-19T01:33:52;101482.28;;;3.27;100.00
59608;BME280;45426;44.726;10.390;2023-02-19T01:36:18;101479.19;;;3.45;100.00
59608;BME280;45426;44.726;10.390;2023-02-19T01:38:44;101483.88;;;3.60;100.00
59608;BME280;45426;44.726;10.390;2023-02-19T01:41:15;101477.34;;;3.14;100.00
59608;BME280;45426;44.726;10.390;2023-02-19T01:46:25;101464.22;;;3.17;100.00
59608;BME280;45426;44.726;10.390;2023-02-19T01:48:51;101463.81;;;3.36;100.00
59608;BME280;45426;44.726;10.390;2023-02-19T01:51:19;101460.88;;;3.00;100.00
59608;BME280;45426;44.726;10.390;2023-02-19T01:53:50;101467.28;;;2.66;100.00
59608;BME280;45426;44.726;10.390;2023-02-19T01:56:18;101461.28;;;2.59;100.00
59608;BME280;45426;44.726;10.390;2023-02-19T01:58:45;101462.28;;;2.80;100.00
59608;BME280;45426;44.726;10.390;2023-02-19T02:01:11;101455.38;;;2.84;100.00
59608;BME280;45426;44.726;10.390;2023-02-19T02:03:39;101455.09;;;2.86;100.00
59608;BME280;45426;44.726;10.390;2023-02-19T02:08:40;101450.28;;;3.20;100.00
59608;BME280;45426;44.726;10.390;2023-02-19T02:11:25;101456.47;;;2.88;100.00
59608;BME280;45426;44.726;10.390;2023-02-19T02:13:52;101453.19;;;2.81;100.00
59608;BME280;45426;44.726;10.390;2023-02-19T02:16:33;101451.78;;;2.74;100.00
59608;BME280;45426;44.726;10.390;2023-02-19T02:32:02;101437.09;;;2.81;100.00
59608;BME280;45426;44.726;10.390;2023-02-19T02:34:45;101423.47;;;2.61;100.00
59608;BME280;45426;44.726;10.390;2023-02-19T02:37:13;101423.28;;;3.00;100.00
59608;BME280;45426;44.726;10.390;2023-02-19T02:39:40;101426.84;;;2.78;100.00
59608;BME280;45426;44.726;10.390;2023-02-19T02:42:06;101422.19;;;3.01;100.00
59608;BME280;45426;44.726;10.390;2023-02-19T02:44:50;101413.81;;;2.60;100.00
59608;BME280;45426;44.726;10.390;2023-02-19T02:47:46;101410.88;;;2.94;100.00
59608;BME280;45426;44.726;10.390;2023-02-19T02:50:23;101419.53;;;3.01;100.00
59608;BME280;45426;44.726;10.390;2023-02-19T02:52:52;101412.94;;;2.81;100.00
59608;BME280;45426;44.726;10.390;2023-02-19T02:55:42;101414.47;;;2.72;100.00
59608;BME280;45426;44.726;10.390;2023-02-19T02:58:09;101418.06;;;2.56;100.00
59608;BME280;45426;44.726;10.390;2023-02-19T03:00:36;101417.66;;;2.69;100.00
59608;BME280;45426;44.726;10.390;2023-02-19T03:03:23;101415.94;;;2.58;100.00
59608;BME280;45426;44.726;10.390;2023-02-19T03:05:51;101410.53;;;2.52;100.00
59608;BME280;45426;44.726;10.390;2023-02-19T03:08:33;101412.41;;;2.52;100.00
59608;BME280;45426;44.726;10.390;2023-02-19T03:11:07;101398.66;;;2.76;100.00
59608;BME280;45426;44.726;10.390;2023-02-19T03:13:57;101405.91;;;2.75;100.00
59608;BME280;45426;44.726;10.390;2023-02-19T03:16:43;101419.78;;;2.67;100.00
59608;BME280;45426;44.726;10.390;2023-02-19T03:19:34;101412.38;;;2.79;100.00
59608;BME280;45426;44.726;10.390;2023-02-19T03:22:32;101417.66;;;2.69;100.00
59608;BME280;45426;44.726;10.390;2023-02-19T03:25:11;101411.31;;;2.80;100.00
59608;BME280;45426;44.726;10.390;2023-02-19T03:27:59;101407.44;;;2.66;100.00
59608;BME280;45426;44.726;10.390;2023-02-19T03:30:32;101413.84;;;2.65;100.00
59608;BME280;45426;44.726;10.390;2023-02-19T03:33:03;101410.44;;;2.75;100.00
59608;BME280;45426;44.726;10.390;2023-02-19T03:35:36;101408.72;;;2.90;100.00
59608;BME280;45426;44.726;10.390;2023-02-19T03:38:31;101401.91;;;2.50;100.00
59608;BME280;45426;44.726;10.390;2023-02-19T03:46:31;101401.16;;;2.87;100.00
59608;BME280;45426;44.726;10.390;2023-02-19T03:49:02;101398.63;;;3.08;100.00
59608;BME280;45426;44.726;10.390;2023-02-19T03:51:49;101390.44;;;2.87;100.00
59608;BME280;45426;44.726;10.390;2023-02-19T03:54:31;101397.16;;;3.27;100.00
59608;BME280;45426;44.726;10.390;2023-02-19T03:59:40;101389.69;;;2.97;100.00
59608;BME280;45426;44.726;10.390;2023-02-19T04:02:26;101400.25;;;2.77;100.00
59608;BME280;45426;44.726;10.390;2023-02-19T04:05:00;101390.25;;;2.67;100.00
59608;BME280;45426;44.726;10.390;2023-02-19T04:07:30;101391.91;;;2.73;100.00
59608;BME280;45426;44.726;10.390;2023-02-19T04:09:57;101382.16;;;2.94;100.00
59608;BME280;45426;44.726;10.390;2023-02-19T04:12:23;101382.34;;;2.82;100.00
59608;BME280;45426;44.726;10.390;2023-02-19T04:14:57;101388.53;;;2.83;100.00
59608;BME280;45426;44.726;10.390;2023-02-19T04:17:45;101392.63;;;2.58;100.00
59608;BME280;45426;44.726;10.390;2023-02-19T04:20:13;101389.84;;;2.80;100.00
59608;BME280;45426;44.726;10.390;2023-02-19T04:22:40;101396.34;;;2.89;100.00
59608;BME280;45426;44.726;10.390;2023-02-19T04:25:06;101399.75;;;2.80;100.00
59608;BME280;45426;44.726;10.390;2023-02-19T04:27:38;101399.94;;;2.68;100.00
59608;BME280;45426;44.726;10.390;2023-02-19T04:30:06;101399.75;;;2.47;100.00
59608;BME280;45426;44.726;10.390;2023-02-19T04:32:32;101404.38;;;2.30;100.00
59608;BME280;45426;44.726;10.390;2023-02-19T04:34:58;101401.69;;;2.25;100.00
59608;BME280;45426;44.726;10.390;2023-02-19T04:37:23;101396.22;;;2.42;100.00
59608;BME280;45426;44.726;10.390;2023-02-19T04:39:49;101397.94;;;2.53;100.00
59608;BME280;45426;44.726;10.390;2023-02-19T04:42:14;101397.00;;;2.42;100.00
59608;BME280;45426;44.726;10.390;2023-02-19T04:44:39;101401.66;;;2.52;100.00
59608;BME280;45426;44.726;10.390;2023-02-19T04:47:05;101390.81;;;2.69;100.00
59608;BME280;45426;44.726;10.390;2023-02-19T04:49:30;101397.56;;;2.44;100.00
59608;BME280;45426;44.726;10.390;2023-02-19T04:51:56;101401.53;;;2.69;100.00
59608;BME280;45426;44.726;10.390;2023-02-19T04:54:21;101405.00;;;2.37;100.00
59608;BME280;45426;44.726;10.390;2023-02-19T04:56:47;101406.13;;;2.41;100.00
59608;BME280;45426;44.726;10.390;2023-02-19T04:59:15;101397.00;;;2.42;100.00
59608;BME280;45426;44.726;10.390;2023-02-19T05:01:40;101391.03;;;2.35;100.00
59608;BME280;45426;44.726;10.390;2023-02-19T05:04:06;101388.09;;;2.64;100.00
59608;BME280;45426;44.726;10.390;2023-02-19T05:06:31;101387.25;;;2.90;100.00
59608;BME280;45426;44.726;10.390;2023-02-19T05:08:57;101387.69;;;2.77;100.00
59608;BME280;45426;44.726;10.390;2023-02-19T05:11:22;101393.75;;;3.00;100.00
59608;BME280;45426;44.726;10.390;2023-02-19T05:13:50;101387.75;;;2.87;100.00
59608;BME280;45426;44.726;10.390;2023-02-19T05:16:17;101385.31;;;2.86;100.00
59608;BME280;45426;44.726;10.390;2023-02-19T05:18:44;101389.78;;;3.50;100.00
59608;BME280;45426;44.726;10.390;2023-02-19T05:21:10;101384.50;;;2.85;100.00
59608;BME280;45426;44.726;10.390;2023-02-19T05:23:36;101385.50;;;3.11;100.00
59608;BME280;45426;44.726;10.390;2023-02-19T05:26:11;101375.09;;;2.83;100.00
59608;BME280;45426;44.726;10.390;2023-02-19T05:28:37;101381.69;;;3.02;100.00
59608;BME280;45426;44.726;10.390;2023-02-19T05:31:05;101388.28;;;3.22;100.00
59608;BME280;45426;44.726;10.390;2023-02-19T05:33:30;101384.47;;;2.80;100.00
59608;BME280;45426;44.726;10.390;2023-02-19T05:35:56;101389.75;;;2.70;100.00
59608;BME280;45426;44.726;10.390;2023-02-19T05:38:22;101385.84;;;2.83;100.00
59608;BME280;45426;44.726;10.390;2023-02-19T05:40:48;101382.75;;;2.69;100.00
59608;BME280;45426;44.726;10.390;2023-02-19T05:43:14;101384.94;;;2.72;100.00
59608;BME280;45426;44.726;10.390;2023-02-19T05:45:40;101377.94;;;2.66;100.00
59608;BME280;45426;44.726;10.390;2023-02-19T05:48:06;101385.75;;;3.05;100.00
59608;BME280;45426;44.726;10.390;2023-02-19T05:50:33;101373.09;;;3.00;100.00
59608;BME280;45426;44.726;10.390;2023-02-19T05:53:00;101374.72;;;3.06;100.00
59608;BME280;45426;44.726;10.390;2023-02-19T05:55:26;101379.25;;;3.01;100.00
59608;BME280;45426;44.726;10.390;2023-02-19T05:57:51;101370.69;;;3.04;100.00
59608;BME280;45426;44.726;10.390;2023-02-19T06:00:18;101376.56;;;2.96;100.00
59608;BME280;45426;44.726;10.390;2023-02-19T06:02:44;101369.56;;;2.95;100.00
59608;BME280;45426;44.726;10.390;2023-02-19T06:05:10;101368.19;;;2.60;100.00
59608;BME280;45426;44.726;10.390;2023-02-19T06:07:36;101367.38;;;2.91;100.00
59608;BME280;45426;44.726;10.390;2023-02-19T06:10:04;101372.00;;;2.64;100.00
59608;BME280;45426;44.726;10.390;2023-02-19T06:12:30;101372.00;;;3.39;100.00
59608;BME280;45426;44.726;10.390;2023-02-19T06:14:55;101378.84;;;3.19;100.00
59608;BME280;45426;44.726;10.390;2023-02-19T06:17:21;101374.28;;;2.82;100.00
59608;BME280;45426;44.726;10.390;2023-02-19T06:19:46;101370.31;;;3.33;100.00
59608;BME280;45426;44.726;10.390;2023-02-19T06:22:13;101369.16;;;2.76;100.00
59608;BME280;45426;44.726;10.390;2023-02-19T06:24:38;101376.81;;;3.42;100.00
59608;BME280;45426;44.726;10.390;2023-02-19T06:27:05;101373.72;;;2.75;100.00
59608;BME280;45426;44.726;10.390;2023-02-19T06:29:31;101366.31;;;2.92;100.00
59608;BME280;45426;44.726;10.390;2023-02-19T06:31:57;101366.53;;;3.28;100.00
59608;BME280;45426;44.726;10.390;2023-02-19T06:34:23;101361.31;;;3.54;100.00
59608;BME280;45426;44.726;10.390;2023-02-19T06:36:49;101365.81;;;3.43;100.00
59608;BME280;45426;44.726;10.390;2023-02-19T06:39:14;101362.03;;;4.02;100.00
59608;BME280;45426;44.726;10.390;2023-02-19T06:41:40;101360.44;;;4.12;100.00
59608;BME280;45426;44.726;10.390;2023-02-19T06:44:05;101357.75;;;4.12;100.00
59608;BME280;45426;44.726;10.390;2023-02-19T06:46:31;101356.72;;;4.59;100.00
59608;BME280;45426;44.726;10.390;2023-02-19T06:48:56;101355.09;;;4.37;100.00
59608;BME280;45426;44.726;10.390;2023-02-19T06:51:22;101354.03;;;4.69;100.00
59608;BME280;45426;44.726;10.390;2023-02-19T06:53:50;101352.28;;;5.50;100.00
59608;BME280;45426;44.726;10.390;2023-02-19T06:56:27;101346.97;;;7.94;100.00
59608;BME280;45426;44.726;10.390;2023-02-19T06:58:55;101347.50;;;8.15;100.00
59608;BME280;45426;44.726;10.390;2023-02-19T07:01:22;101336.63;;;7.58;100.00
59608;BME280;45426;44.726;10.390;2023-02-19T07:03:48;101342.97;;;8.11;100.00
59608;BME280;45426;44.726;10.390;2023-02-19T07:06:14;101337.97;;;8.56;100.00
59608;BME280;45426;44.726;10.390;2023-02-19T07:08:39;101330.84;;;9.62;100.00
59608;BME280;45426;44.726;10.390;2023-02-19T07:11:05;101343.19;;;11.09;100.00
59608;BME280;45426;44.726;10.390;2023-02-19T07:13:30;101344.13;;;10.14;100.00
59608;BME280;45426;44.726;10.390;2023-02-19T07:16:01;101331.94;;;10.11;100.00
59608;BME280;45426;44.726;10.390;2023-02-19T07:18:27;101329.84;;;9.44;100.00
59608;BME280;45426;44.726;10.390;2023-02-19T07:20:52;101331.13;;;11.01;100.00
59608;BME280;45426;44.726;10.390;2023-02-19T07:23:17;101335.75;;;10.69;100.00
59608;BME280;45426;44.726;10.390;2023-02-19T07:25:43;101334.56;;;11.73;100.00
59608;BME280;45426;44.726;10.390;2023-02-19T07:28:08;101341.38;;;12.19;100.00
59608;BME280;45426;44.726;10.390;2023-02-19T07:30:34;101332.16;;;11.72;100.00
59608;BME280;45426;44.726;10.390;2023-02-19T07:32:59;101332.31;;;11.58;100.00
59608;BME280;45426;44.726;10.390;2023-02-19T07:35:25;101326.16;;;13.00;100.00
59608;BME280;45426;44.726;10.390;2023-02-19T07:37:50;101328.59;;;12.93;100.00
59608;BME280;45426;44.726;10.390;2023-02-19T07:40:16;101332.50;;;12.66;100.00
59608;BME280;45426;44.726;10.390;2023-02-19T07:42:41;101333.59;;;13.30;100.00
59608;BME280;45426;44.726;10.390;2023-02-19T07:45:07;101336.75;;;13.91;100.00
59608;BME280;45426;44.726;10.390;2023-02-19T07:47:32;101338.66;;;14.00;100.00
59608;BME280;45426;44.726;10.390;2023-02-19T07:49:58;101330.41;;;12.72;100.00
59608;BME280;45426;44.726;10.390;2023-02-19T07:52:23;101343.59;;;12.17;100.00
59608;BME280;45426;44.726;10.390;2023-02-19T07:54:48;101330.78;;;11.92;100.00
59608;BME280;45426;44.726;10.390;2023-02-19T07:57:14;101332.78;;;11.60;100.00
59608;BME280;45426;44.726;10.390;2023-02-19T07:59:39;101331.44;;;12.23;100.00
59608;BME280;45426;44.726;10.390;2023-02-19T08:02:15;101323.66;;;12.78;100.00
59608;BME280;45426;44.726;10.390;2023-02-19T08:05:00;101324.44;;;14.06;100.00
59608;BME280;45426;44.726;10.390;2023-02-19T08:07:32;101320.19;;;13.46;100.00
59608;BME280;45426;44.726;10.390;2023-02-19T08:09:58;101322.22;;;14.75;100.00
59608;BME280;45426;44.726;10.390;2023-02-19T08:12:43;101321.03;;;15.22;100.00
59608;BME280;45426;44.726;10.390;2023-02-19T08:15:27;101310.88;;;15.10;100.00
59608;BME280;45426;44.726;10.390;2023-02-19T08:17:53;101326.38;;;14.93;100.00
59608;BME280;45426;44.726;10.390;2023-02-19T08:20:18;101328.19;;;14.89;100.00
59608;BME280;45426;44.726;10.390;2023-02-19T08:22:44;101330.75;;;14.73;100.00
59608;BME280;45426;44.726;10.390;2023-02-19T08:25:09;101320.84;;;14.69;100.00
59608;BME280;45426;44.726;10.390;2023-02-19T08:27:34;101315.94;;;14.41;100.00
59608;BME280;45426;44.726;10.390;2023-02-19T08:30:00;101323.97;;;14.04;100.00
59608;BME280;45426;44.726;10.390;2023-02-19T08:32:25;101322.69;;;16.73;100.00
59608;BME280;45426;44.726;10.390;2023-02-19T08:34:51;101307.97;;;17.96;100.00
59608;BME280;45426;44.726;10.390;2023-02-19T08:37:16;101306.28;;;20.36;100.00
59608;BME280;45426;44.726;10.390;2023-02-19T08:39:41;101315.22;;;19.92;100.00
59608;BME280;45426;44.726;10.390;2023-02-19T08:42:07;101309.16;;;17.43;100.00
59608;BME280;45426;44.726;10.390;2023-02-19T08:44:32;101308.97;;;21.67;100.00
59608;BME280;45426;44.726;10.390;2023-02-19T08:46:58;101312.41;;;23.74;100.00
59608;BME280;45426;44.726;10.390;2023-02-19T08:49:26;101311.34;;;19.97;100.00
59608;BME280;45426;44.726;10.390;2023-02-19T08:51:52;101313.69;;;17.87;100.00
59608;BME280;45426;44.726;10.390;2023-02-19T08:54:17;101307.97;;;18.35;100.00
59608;BME280;45426;44.726;10.390;2023-02-19T08:56:43;101308.22;;;21.74;100.00
59608;BME280;45426;44.726;10.390;2023-02-19T08:59:08;101301.97;;;21.95;100.00
59608;BME280;45426;44.726;10.390;2023-02-19T09:01:34;101299.44;;;22.92;100.00
59608;BME280;45426;44.726;10.390;2023-02-19T09:03:59;101302.41;;;24.72;100.00
59608;BME280;45426;44.726;10.390;2023-02-19T09:06:25;101305.34;;;22.79;100.00
59608;BME280;45426;44.726;10.390;2023-02-19T09:08:50;101302.47;;;20.11;100.00
59608;BME280;45426;44.726;10.390;2023-02-19T09:11:16;101299.66;;;20.82;100.00
59608;BME280;45426;44.726;10.390;2023-02-19T09:13:42;101295.00;;;17.77;100.00
59608;BME280;45426;44.726;10.390;2023-02-19T09:16:08;101304.34;;;16.89;100.00
59608;BME280;45426;44.726;10.390;2023-02-19T09:18:34;101296.84;;;18.74;100.00
59608;BME280;45426;44.726;10.390;2023-02-19T09:21:04;101301.94;;;21.87;100.00
59608;BME280;45426;44.726;10.390;2023-02-19T09:23:33;101295.44;;;19.30;100.00
59608;BME280;45426;44.726;10.390;2023-02-19T09:25:59;101291.56;;;19.34;100.00
59608;BME280;45426;44.726;10.390;2023-02-19T09:28:26;101295.97;;;19.39;100.00
59608;BME280;45426;44.726;10.390;2023-02-19T09:30:52;101299.03;;;18.84;100.00
59608;BME280;45426;44.726;10.390;2023-02-19T09:33:19;101294.22;;;19.00;100.00
59608;BME280;45426;44.726;10.390;2023-02-19T09:35:44;101295.34;;;18.76;100.00
59608;BME280;45426;44.726;10.390;2023-02-19T09:38:10;101283.97;;;19.28;100.00
59608;BME280;45426;44.726;10.390;2023-02-19T09:40:37;101279.72;;;19.30;100.00
59608;BME280;45426;44.726;10.390;2023-02-19T09:43:07;101290.34;;;22.77;100.00
59608;BME280;45426;44.726;10.390;2023-02-19T09:45:35;101289.66;;;21.15;100.00
59608;BME280;45426;44.726;10.390;2023-02-19T09:48:02;101285.75;;;17.85;100.00
59608;BME280;45426;44.726;10.390;2023-02-19T09:50:39;101280.81;;;19.79;100.00
59608;BME280;45426;44.726;10.390;2023-02-19T09:53:10;101276.41;;;17.54;100.00
59608;BME280;45426;44.726;10.390;2023-02-19T09:55:41;101273.97;;;19.43;100.00
59608;BME280;45426;44.726;10.390;2023-02-19T09:58:31;101279.66;;;21.00;100.00
59608;BME280;45426;44.726;10.390;2023-02-19T10:01:00;101277.06;;;21.18;100.00
59608;BME280;45426;44.726;10.390;2023-02-19T10:03:29;101268.53;;;22.54;100.00
59608;BME280;45426;44.726;10.390;2023-02-19T10:06:04;101280.84;;;18.56;100.00
59608;BME280;45426;44.726;10.390;2023-02-19T10:08:33;101281.88;;;16.55;100.00
59608;BME280;45426;44.726;10.390;2023-02-19T10:11:00;101271.81;;;17.23;100.00
59608;BME280;45426;44.726;10.390;2023-02-19T10:13:44;101276.13;;;15.88;100.00
59608;BME280;45426;44.726;10.390;2023-02-19T10:16:15;101277.50;;;16.38;100.00
59608;BME280;45426;44.726;10.390;2023-02-19T10:18:43;101276.72;;;16.38;100.00
59608;BME280;45426;44.726;10.390;2023-02-19T10:21:15;101262.66;;;16.83;100.00
59608;BME280;45426;44.726;10.390;2023-02-19T10:23:41;101269.41;;;16.58;100.00
59608;BME280;45426;44.726;10.390;2023-02-19T10:26:07;101270.38;;;15.93;100.00
59608;BME280;45426;44.726;10.390;2023-02-19T10:28:34;101269.59;;;16.65;100.00
59608;BME280;45426;44.726;10.390;2023-02-19T10:31:03;101261.19;;;17.57;100.00
59608;BME280;45426;44.726;10.390;2023-02-19T10:33:30;101267.22;;;16.95;100.00
59608;BME280;45426;44.726;10.390;2023-02-19T10:35:57;101257.78;;;16.93;100.00
59608;BME280;45426;44.726;10.390;2023-02-19T10:38:28;101249.81;;;16.87;100.00
59608;BME280;45426;44.726;10.390;2023-02-19T10:43:28;101256.56;;;16.62;100.00
59608;BME280;45426;44.726;10.390;2023-02-19T10:46:20;101255.53;;;17.14;100.00
59608;BME280;45426;44.726;10.390;2023-02-19T10:49:00;101260.03;;;16.91;100.00
59608;BME280;45426;44.726;10.390;2023-02-19T10:51:34;101259.03;;;16.35;100.00
59608;BME280;45426;44.726;10.390;2023-02-19T10:56:29;101258.38;;;16.26;100.00
59608;BME280;45426;44.726;10.390;2023-02-19T10:59:33;101259.91;;;16.39;100.00
59608;BME280;45426;44.726;10.390;2023-02-19T11:02:00;101252.09;;;15.97;100.00
59608;BME280;45426;44.726;10.390;2023-02-19T11:04:31;101248.34;;;16.18;100.00
59608;BME280;45426;44.726;10.390;2023-02-19T11:07:16;101229.78;;;17.03;100.00
59608;BME280;45426;44.726;10.390;2023-02-19T11:09:44;101238.84;;;16.43;100.00
59608;BME280;45426;44.726;10.390;2023-02-19T11:12:12;101234.59;;;16.14;100.00
59608;BME280;45426;44.726;10.390;2023-02-19T11:14:42;101227.41;;;16.85;100.00
59608;BME280;45426;44.726;10.390;2023-02-19T11:17:23;101221.28;;;16.76;100.00
59608;BME280;45426;44.726;10.390;2023-02-19T11:20:00;101216.03;;;17.38;100.00
59608;BME280;45426;44.726;10.390;2023-02-19T11:22:32;101220.31;;;17.36;100.00
59608;BME280;45426;44.726;10.390;2023-02-19T11:27:52;101207.13;;;16.90;100.00
59608;BME280;45426;44.726;10.390;2023-02-19T11:30:41;101212.25;;;16.92;100.00
59608;BME280;45426;44.726;10.390;2023-02-19T11:35:50;101212.25;;;17.62;100.00
59608;BME280;45426;44.726;10.390;2023-02-19T11:38:17;101203.41;;;17.73;100.00
59608;BME280;45426;44.726;10.390;2023-02-19T11:46:11;101194.34;;;16.98;100.00
59608;BME280;45426;44.726;10.390;2023-02-19T11:53:47;101188.00;;;16.62;100.00
59608;BME280;45426;44.726;10.390;2023-02-19T11:57:34;101191.59;;;17.14;100.00
59608;BME280;45426;44.726;10.390;2023-02-19T11:59:47;101177.91;;;16.82;100.00
59608;BME280;45426;44.726;10.390;2023-02-19T12:26:23;101163.75;;;16.32;100.00
59608;BME280;45426;44.726;10.390;2023-02-19T12:29:17;101148.16;;;16.68;100.00
59608;BME280;45426;44.726;10.390;2023-02-19T12:32:02;101158.22;;;16.96;100.00
59608;BME280;45426;44.726;10.390;2023-02-19T12:43:09;101150.19;;;16.87;100.00
59608;BME280;45426;44.726;10.390;2023-02-19T12:45:59;101146.81;;;16.94;100.00
59608;BME280;45426;44.726;10.390;2023-02-19T12:48:30;101142.78;;;16.87;100.00
59608;BME280;45426;44.726;10.390;2023-02-19T12:51:05;101139.84;;;16.80;100.00
59608;BME280;45426;44.726;10.390;2023-02-19T12:53:43;101134.97;;;16.74;100.00
59608;BME280;45426;44.726;10.390;2023-02-19T12:56:28;101138.91;;;17.08;100.00
59608;BME280;45426;44.726;10.390;2023-02-19T12:59:03;101133.47;;;16.60;100.00
59608;BME280;45426;44.726;10.390;2023-02-19T13:01:40;101138.78;;;16.69;100.00
59608;BME280;45426;44.726;10.390;2023-02-19T13:04:25;101139.16;;;16.83;100.00
59608;BME280;45426;44.726;10.390;2023-02-19T13:06:56;101138.31;;;16.99;100.00
59608;BME280;45426;44.726;10.390;2023-02-19T13:09:50;101133.56;;;16.80;100.00
59608;BME280;45426;44.726;10.390;2023-02-19T13:12:25;101133.16;;;16.30;100.00
59608;BME280;45426;44.726;10.390;2023-02-19T13:17:52;101126.41;;;16.59;100.00
59608;BME280;45426;44.726;10.390;2023-02-19T13:37:14;101093.53;;;16.27;100.00
59608;BME280;45426;44.726;10.390;2023-02-19T13:39:51;101085.19;;;16.56;100.00
59608;BME280;45426;44.726;10.390;2023-02-19T13:42:37;101084.16;;;16.44;100.00
59608;BME280;45426;44.726;10.390;2023-02-19T13:45:03;101078.28;;;16.81;100.00
59608;BME280;45426;44.726;10.390;2023-02-19T13:47:49;101078.66;;;15.97;100.00
59608;BME280;45426;44.726;10.390;2023-02-19T13:50:28;101085.31;;;16.27;100.00
59608;BME280;45426;44.726;10.390;2023-02-19T13:52:55;101083.34;;;16.12;100.00
59608;BME280;45426;44.726;10.390;2023-02-19T13:58:34;101088.66;;;16.21;100.00
59608;BME280;45426;44.726;10.390;2023-02-19T14:01:07;101076.53;;;16.54;100.00
59608;BME280;45426;44.726;10.390;2023-02-19T14:06:06;101062.50;;;16.07;100.00
59608;BME280;45426;44.726;10.390;2023-02-19T14:11:10;101061.41;;;16.12;100.00
59608;BME280;45426;44.726;10.390;2023-02-19T14:19:14;101058.59;;;15.77;100.00
59608;BME280;45426;44.726;10.390;2023-02-19T14:21:40;101053.84;;;15.61;100.00
59608;BME280;45426;44.726;10.390;2023-02-19T14:24:13;101053.25;;;15.68;100.00
59608;BME280;45426;44.726;10.390;2023-02-19T14:26:39;101051.03;;;15.29;100.00
59608;BME280;45426;44.726;10.390;2023-02-19T14:29:07;101049.91;;;15.30;100.00
59608;BME280;45426;44.726;10.390;2023-02-19T14:31:38;101046.66;;;15.41;100.00
59608;BME280;45426;44.726;10.390;2023-02-19T14:34:14;101041.47;;;15.36;100.00
59608;BME280;45426;44.726;10.390;2023-02-19T14:36:55;101044.69;;;15.25;100.00
59608;BME280;45426;44.726;10.390;2023-02-19T14:39:24;101041.41;;;15.20;100.00
59608;BME280;45426;44.726;10.390;2023-02-19T14:41:55;101041.25;;;15.28;100.00
59608;BME280;45426;44.726;10.390;2023-02-19T14:44:28;101047.22;;;15.18;100.00
59608;BME280;45426;44.726;10.390;2023-02-19T14:47:02;101035.25;;;15.39;100.00